sensor_id;sensor_type;location;lat;lon;timestamp;pressure;altitude;pressure_sealevel;temperature;humidity
80566;BME280;69915;54.862;10.730;2023-07-20T00:01:21;100908.91;;;12.79;89.84
80566;BME280;69915;54.862;10.730;2023-07-20T00:03:47;100898.03;;;12.74;88.91
80566;BME280;69915;54.862;10.730;2023-07-20T00:06:24;100887.97;;;12.69;88.59
80566;BME280;69915;54.862;10.730;2023-07-20T00:08:51;100886.34;;;12.68;88.11
80566;BME280;69915;54.862;10.730;2023-07-20T00:11:17;100915.91;;;12.85;88.09
80566;BME280;69915;54.862;10.730;2023-07-20T00:13:42;100911.66;;;12.79;88.10
80566;BME280;69915;54.862;10.730;2023-07-20T00:16:08;100922.53;;;12.84;88.54
80566;BME280;69915;54.862;10.730;2023-07-20T00:18:34;100911.66;;;12.79;88.46
80566;BME280;69915;54.862;10.730;2023-07-20T00:20:59;100901.88;;;12.73;88.15
80566;BME280;69915;54.862;10.730;2023-07-20T00:23:26;100869.56;;;12.56;88.29
80566;BME280;69915;54.862;10.730;2023-07-20T00:25:52;100914.91;;;12.81;88.52
80566;BME280;69915;54.862;10.730;2023-07-20T00:28:17;100912.84;;;12.73;89.01
80566;BME280;69915;54.862;10.730;2023-07-20T00:30:43;100912.97;;;12.68;89.10
80566;BME280;69915;54.862;10.730;2023-07-20T00:33:12;100890.91;;;12.59;88.58
80566;BME280;69915;54.862;10.730;2023-07-20T00:35:38;100910.22;;;12.68;88.71
80566;BME280;69915;54.862;10.730;2023-07-20T00:38:04;100909.63;;;12.71;88.58
80566;BME280;69915;54.862;10.730;2023-07-20T00:40:37;100900.97;;;12.64;89.06
80566;BME280;69915;54.862;10.730;2023-07-20T00:43:03;100902.28;;;12.66;88.56
80566;BME280;69915;54.862;10.730;2023-07-20T00:45:29;100895.91;;;12.71;88.05
80566;BME280;69915;54.862;10.730;2023-07-20T00:47:55;100912.78;;;12.78;88.78
80566;BME280;69915;54.862;10.730;2023-07-20T00:50:21;100916.94;;;12.89;88.42
80566;BME280;69915;54.862;10.730;2023-07-20T00:52:46;100911.25;;;12.85;88.48
80566;BME280;69915;54.862;10.730;2023-07-20T00:55:14;100923.53;;;12.88;88.35
80566;BME280;69915;54.862;10.730;2023-07-20T00:57:40;100902.81;;;12.68;88.75
80566;BME280;69915;54.862;10.730;2023-07-20T01:00:07;100921.09;;;12.73;88.94
80566;BME280;69915;54.862;10.730;2023-07-20T01:02:33;100902.50;;;12.56;88.76
80566;BME280;69915;54.862;10.730;2023-07-20T01:04:58;100932.16;;;12.68;89.21
80566;BME280;69915;54.862;10.730;2023-07-20T01:07:34;100898.75;;;12.66;87.61
80566;BME280;69915;54.862;10.730;2023-07-20T01:12:47;100897.22;;;12.60;87.63
80566;BME280;69915;54.862;10.730;2023-07-20T01:15:14;100910.59;;;12.61;88.33
80566;BME280;69915;54.862;10.730;2023-07-20T01:17:40;100910.50;;;12.52;88.55
80566;BME280;69915;54.862;10.730;2023-07-20T01:20:09;100902.66;;;12.46;89.30
80566;BME280;69915;54.862;10.730;2023-07-20T01:22:47;100922.22;;;12.72;89.43
80566;BME280;69915;54.862;10.730;2023-07-20T01:25:21;100931.34;;;12.67;89.31
80566;BME280;69915;54.862;10.730;2023-07-20T01:33:11;100901.03;;;12.45;88.52
80566;BME280;69915;54.862;10.730;2023-07-20T01:35:39;100916.53;;;12.68;88.73
80566;BME280;69915;54.862;10.730;2023-07-20T01:38:07;100901.56;;;12.61;88.60
80566;BME280;69915;54.862;10.730;2023-07-20T01:40:34;100906.38;;;12.82;87.68
80566;BME280;69915;54.862;10.730;2023-07-20T01:43:02;100905.16;;;12.88;87.16
80566;BME280;69915;54.862;10.730;2023-07-20T01:45:27;100913.91;;;12.77;87.31
80566;BME280;69915;54.862;10.730;2023-07-20T01:47:53;100915.31;;;12.88;87.85
80566;BME280;69915;54.862;10.730;2023-07-20T01:50:18;100892.16;;;12.80;87.55
80566;BME280;69915;54.862;10.730;2023-07-20T01:52:44;100922.94;;;12.91;87.72
80566;BME280;69915;54.862;10.730;2023-07-20T01:55:09;100882.78;;;12.68;87.91
80566;BME280;69915;54.862;10.730;2023-07-20T01:57:37;100901.50;;;12.93;87.22
80566;BME280;69915;54.862;10.730;2023-07-20T02:00:03;100917.97;;;12.93;87.56
80566;BME280;69915;54.862;10.730;2023-07-20T02:02:29;100915.13;;;12.98;87.34
80566;BME280;69915;54.862;10.730;2023-07-20T02:04:55;100894.06;;;12.80;87.38
80566;BME280;69915;54.862;10.730;2023-07-20T02:07:20;100908.22;;;12.87;87.45
80566;BME280;69915;54.862;10.730;2023-07-20T02:09:47;100923.53;;;12.88;87.87
80566;BME280;69915;54.862;10.730;2023-07-20T02:12:13;100889.91;;;12.69;88.24
80566;BME280;69915;54.862;10.730;2023-07-20T02:14:39;100883.78;;;12.58;88.24
80566;BME280;69915;54.862;10.730;2023-07-20T02:17:04;100885.72;;;12.57;89.25
80566;BME280;69915;54.862;10.730;2023-07-20T02:19:29;100897.44;;;12.77;88.93
80566;BME280;69915;54.862;10.730;2023-07-20T02:21:55;100917.44;;;12.91;88.94
80566;BME280;69915;54.862;10.730;2023-07-20T02:24:24;100884.53;;;12.91;88.50
80566;BME280;69915;54.862;10.730;2023-07-20T02:26:52;100885.16;;;13.01;87.32
80566;BME280;69915;54.862;10.730;2023-07-20T02:29:18;100912.94;;;13.14;86.99
80566;BME280;69915;54.862;10.730;2023-07-20T02:31:46;100884.44;;;12.96;87.15
80566;BME280;69915;54.862;10.730;2023-07-20T02:34:12;100885.28;;;13.10;87.16
80566;BME280;69915;54.862;10.730;2023-07-20T02:36:39;100888.84;;;13.11;87.42
80566;BME280;69915;54.862;10.730;2023-07-20T02:39:05;100874.47;;;13.00;87.50
80566;BME280;69915;54.862;10.730;2023-07-20T02:41:32;100876.09;;;13.01;87.71
80566;BME280;69915;54.862;10.730;2023-07-20T02:44:01;100880.97;;;12.90;87.75
80566;BME280;69915;54.862;10.730;2023-07-20T02:46:28;100913.91;;;13.04;87.93
80566;BME280;69915;54.862;10.730;2023-07-20T02:48:55;100882.28;;;12.79;88.11
80566;BME280;69915;54.862;10.730;2023-07-20T02:54:42;100888.50;;;12.98;87.77
80566;BME280;69915;54.862;10.730;2023-07-20T02:57:08;100907.56;;;13.08;87.88
80566;BME280;69915;54.862;10.730;2023-07-20T02:59:36;100915.47;;;13.10;87.94
80566;BME280;69915;54.862;10.730;2023-07-20T03:02:01;100907.91;;;13.02;87.87
80566;BME280;69915;54.862;10.730;2023-07-20T03:04:27;100905.38;;;13.05;88.28
80566;BME280;69915;54.862;10.730;2023-07-20T03:06:53;100880.56;;;12.97;88.52
80566;BME280;69915;54.862;10.730;2023-07-20T03:09:18;100891.34;;;13.07;88.68
80566;BME280;69915;54.862;10.730;2023-07-20T03:11:44;100885.25;;;12.96;88.80
80566;BME280;69915;54.862;10.730;2023-07-20T03:14:10;100906.22;;;13.20;88.67
80566;BME280;69915;54.862;10.730;2023-07-20T03:16:36;100899.47;;;13.39;88.16
80566;BME280;69915;54.862;10.730;2023-07-20T03:19:02;100914.22;;;13.43;88.43
80566;BME280;69915;54.862;10.730;2023-07-20T03:21:29;100905.75;;;13.53;87.60
80566;BME280;69915;54.862;10.730;2023-07-20T03:23:55;100896.41;;;13.54;87.27
80566;BME280;69915;54.862;10.730;2023-07-20T03:26:20;100880.75;;;13.41;87.40
80566;BME280;69915;54.862;10.730;2023-07-20T03:28:47;100870.31;;;13.30;87.13
80566;BME280;69915;54.862;10.730;2023-07-20T03:31:12;100887.50;;;13.35;87.33
80566;BME280;69915;54.862;10.730;2023-07-20T03:33:41;100905.47;;;13.41;87.64
80566;BME280;69915;54.862;10.730;2023-07-20T03:36:08;100877.31;;;13.22;87.74
80566;BME280;69915;54.862;10.730;2023-07-20T03:38:35;100881.19;;;13.21;87.69
80566;BME280;69915;54.862;10.730;2023-07-20T03:41:00;100880.59;;;13.11;87.79
80566;BME280;69915;54.862;10.730;2023-07-20T03:43:27;100902.13;;;13.31;87.66
80566;BME280;69915;54.862;10.730;2023-07-20T03:45:53;100878.44;;;13.21;88.02
80566;BME280;69915;54.862;10.730;2023-07-20T03:48:21;100894.59;;;13.36;88.34
80566;BME280;69915;54.862;10.730;2023-07-20T03:50:50;100893.34;;;13.42;87.92
80566;BME280;69915;54.862;10.730;2023-07-20T03:53:16;100897.03;;;13.51;88.42
80566;BME280;69915;54.862;10.730;2023-07-20T03:55:51;100864.50;;;13.45;87.74
80566;BME280;69915;54.862;10.730;2023-07-20T03:58:18;100883.03;;;13.61;88.19
80566;BME280;69915;54.862;10.730;2023-07-20T04:00:50;100871.56;;;13.59;87.70
80566;BME280;69915;54.862;10.730;2023-07-20T04:03:20;100876.22;;;13.73;87.21
80566;BME280;69915;54.862;10.730;2023-07-20T04:05:57;100898.94;;;13.87;86.69
80566;BME280;69915;54.862;10.730;2023-07-20T04:08:26;100874.63;;;13.80;86.40
80566;BME280;69915;54.862;10.730;2023-07-20T04:10:53;100875.72;;;13.93;86.32
80566;BME280;69915;54.862;10.730;2023-07-20T04:13:19;100905.97;;;14.15;85.73
80566;BME280;69915;54.862;10.730;2023-07-20T04:15:45;100873.56;;;14.03;85.37
80566;BME280;69915;54.862;10.730;2023-07-20T04:18:11;100908.78;;;14.24;85.97
80566;BME280;69915;54.862;10.730;2023-07-20T04:20:36;100890.97;;;14.21;85.15
80566;BME280;69915;54.862;10.730;2023-07-20T04:23:02;100891.91;;;14.16;84.66
80566;BME280;69915;54.862;10.730;2023-07-20T04:25:27;100903.72;;;14.17;84.76
80566;BME280;69915;54.862;10.730;2023-07-20T04:27:53;100902.34;;;14.06;85.15
80566;BME280;69915;54.862;10.730;2023-07-20T04:30:24;100886.44;;;13.81;85.12
80566;BME280;69915;54.862;10.730;2023-07-20T04:32:51;100905.56;;;13.86;84.83
80566;BME280;69915;54.862;10.730;2023-07-20T04:35:50;100915.94;;;13.89;84.31
80566;BME280;69915;54.862;10.730;2023-07-20T04:38:21;100900.03;;;13.99;83.26
80566;BME280;69915;54.862;10.730;2023-07-20T04:40:48;100897.81;;;14.10;81.90
80566;BME280;69915;54.862;10.730;2023-07-20T04:43:14;100919.63;;;14.29;82.08
80566;BME280;69915;54.862;10.730;2023-07-20T04:45:43;100926.22;;;14.41;81.78
80566;BME280;69915;54.862;10.730;2023-07-20T04:48:29;100920.94;;;14.31;81.59
80566;BME280;69915;54.862;10.730;2023-07-20T04:50:54;100912.97;;;14.21;82.36
80566;BME280;69915;54.862;10.730;2023-07-20T04:53:20;100926.88;;;14.38;80.86
80566;BME280;69915;54.862;10.730;2023-07-20T04:55:49;100907.56;;;14.16;80.64
80566;BME280;69915;54.862;10.730;2023-07-20T04:58:18;100923.84;;;14.26;80.95
80566;BME280;69915;54.862;10.730;2023-07-20T05:00:43;100930.91;;;14.41;81.60
80566;BME280;69915;54.862;10.730;2023-07-20T05:03:09;100919.38;;;14.52;79.87
80566;BME280;69915;54.862;10.730;2023-07-20T05:05:35;100912.94;;;14.65;78.93
80566;BME280;69915;54.862;10.730;2023-07-20T05:08:00;100919.81;;;14.77;77.90
80566;BME280;69915;54.862;10.730;2023-07-20T05:10:26;100924.97;;;15.09;78.08
80566;BME280;69915;54.862;10.730;2023-07-20T05:12:51;100912.03;;;15.18;77.55
80566;BME280;69915;54.862;10.730;2023-07-20T05:15:16;100895.94;;;14.94;77.02
80566;BME280;69915;54.862;10.730;2023-07-20T05:17:42;100889.19;;;14.69;77.30
80566;BME280;69915;54.862;10.730;2023-07-20T05:20:07;100910.16;;;14.57;77.99
80566;BME280;69915;54.862;10.730;2023-07-20T05:22:37;100899.16;;;14.35;78.57
80566;BME280;69915;54.862;10.730;2023-07-20T05:25:09;100909.53;;;14.38;80.26
80566;BME280;69915;54.862;10.730;2023-07-20T05:27:39;100920.94;;;14.76;79.99
80566;BME280;69915;54.862;10.730;2023-07-20T05:30:06;100898.88;;;15.06;78.28
80566;BME280;69915;54.862;10.730;2023-07-20T05:32:35;100880.88;;;15.48;76.53
80566;BME280;69915;54.862;10.730;2023-07-20T05:35:01;100900.84;;;15.62;73.43
80566;BME280;69915;54.862;10.730;2023-07-20T05:37:26;100913.47;;;15.63;74.81
80566;BME280;69915;54.862;10.730;2023-07-20T05:39:52;100905.03;;;15.51;74.85
80566;BME280;69915;54.862;10.730;2023-07-20T05:42:17;100888.59;;;15.38;74.03
80566;BME280;69915;54.862;10.730;2023-07-20T05:44:42;100892.66;;;15.32;74.13
80566;BME280;69915;54.862;10.730;2023-07-20T05:47:08;100886.81;;;15.42;73.31
80566;BME280;69915;54.862;10.730;2023-07-20T05:49:36;100899.66;;;15.46;73.40
80566;BME280;69915;54.862;10.730;2023-07-20T05:52:02;100899.22;;;15.61;73.43
80566;BME280;69915;54.862;10.730;2023-07-20T05:54:27;100897.66;;;15.38;72.97
80566;BME280;69915;54.862;10.730;2023-07-20T05:56:54;100908.00;;;15.15;74.29
80566;BME280;69915;54.862;10.730;2023-07-20T05:59:19;100923.03;;;15.09;75.67
80566;BME280;69915;54.862;10.730;2023-07-20T06:01:45;100905.34;;;15.02;75.92
80566;BME280;69915;54.862;10.730;2023-07-20T06:04:13;100903.13;;;15.21;76.44
80566;BME280;69915;54.862;10.730;2023-07-20T06:06:39;100883.88;;;15.38;75.20
80566;BME280;69915;54.862;10.730;2023-07-20T06:09:04;100898.09;;;15.71;73.27
80566;BME280;69915;54.862;10.730;2023-07-20T06:11:32;100883.31;;;15.75;73.07
80566;BME280;69915;54.862;10.730;2023-07-20T06:13:58;100894.34;;;16.10;74.66
80566;BME280;69915;54.862;10.730;2023-07-20T06:16:24;100895.78;;;16.24;72.18
80566;BME280;69915;54.862;10.730;2023-07-20T06:18:49;100891.56;;;16.36;70.88
80566;BME280;69915;54.862;10.730;2023-07-20T06:21:15;100908.63;;;16.29;71.31
80566;BME280;69915;54.862;10.730;2023-07-20T06:23:40;100886.56;;;16.12;72.04
80566;BME280;69915;54.862;10.730;2023-07-20T06:26:07;100883.66;;;16.08;70.97
80566;BME280;69915;54.862;10.730;2023-07-20T06:28:33;100884.91;;;16.28;71.03
80566;BME280;69915;54.862;10.730;2023-07-20T06:31:03;100901.75;;;16.52;71.01
80566;BME280;69915;54.862;10.730;2023-07-20T06:33:29;100907.94;;;16.66;70.89
80566;BME280;69915;54.862;10.730;2023-07-20T06:35:54;100921.66;;;16.83;70.68
80566;BME280;69915;54.862;10.730;2023-07-20T06:38:22;100910.31;;;16.76;69.58
80566;BME280;69915;54.862;10.730;2023-07-20T06:40:49;100899.63;;;16.58;69.82
80566;BME280;69915;54.862;10.730;2023-07-20T06:43:16;100916.34;;;16.70;70.19
80566;BME280;69915;54.862;10.730;2023-07-20T06:45:42;100919.75;;;16.75;69.27
80566;BME280;69915;54.862;10.730;2023-07-20T06:48:08;100899.13;;;17.11;70.11
80566;BME280;69915;54.862;10.730;2023-07-20T06:50:33;100881.31;;;17.29;68.12
80566;BME280;69915;54.862;10.730;2023-07-20T06:52:59;100906.53;;;17.27;68.16
80566;BME280;69915;54.862;10.730;2023-07-20T06:55:25;100903.91;;;17.60;67.02
80566;BME280;69915;54.862;10.730;2023-07-20T06:57:51;100902.78;;;17.82;66.84
80566;BME280;69915;54.862;10.730;2023-07-20T07:00:17;100887.50;;;18.17;66.13
80566;BME280;69915;54.862;10.730;2023-07-20T07:02:43;100899.53;;;18.01;65.77
80566;BME280;69915;54.862;10.730;2023-07-20T07:05:09;100882.16;;;17.50;66.37
80566;BME280;69915;54.862;10.730;2023-07-20T07:07:34;100889.50;;;17.17;70.08
80566;BME280;69915;54.862;10.730;2023-07-20T07:10:01;100882.19;;;15.85;76.27
80566;BME280;69915;54.862;10.730;2023-07-20T07:12:29;100900.63;;;14.94;81.46
80566;BME280;69915;54.862;10.730;2023-07-20T07:14:54;100888.53;;;14.42;84.07
80566;BME280;69915;54.862;10.730;2023-07-20T07:17:19;100899.75;;;14.32;85.22
80566;BME280;69915;54.862;10.730;2023-07-20T07:19:45;100889.91;;;14.08;84.70
80566;BME280;69915;54.862;10.730;2023-07-20T07:22:10;100911.28;;;14.11;85.01
80566;BME280;69915;54.862;10.730;2023-07-20T07:24:37;100903.66;;;14.53;85.10
80566;BME280;69915;54.862;10.730;2023-07-20T07:27:02;100885.25;;;15.58;81.55
80566;BME280;69915;54.862;10.730;2023-07-20T07:29:29;100901.94;;;16.47;77.89
80566;BME280;69915;54.862;10.730;2023-07-20T07:31:55;100894.03;;;16.20;75.25
80566;BME280;69915;54.862;10.730;2023-07-20T07:34:22;100895.47;;;17.27;73.64
80566;BME280;69915;54.862;10.730;2023-07-20T07:36:48;100887.13;;;18.07;70.81
80566;BME280;69915;54.862;10.730;2023-07-20T07:39:13;100886.25;;;18.60;66.39
80566;BME280;69915;54.862;10.730;2023-07-20T07:41:39;100892.97;;;18.38;66.70
80566;BME280;69915;54.862;10.730;2023-07-20T07:44:04;100883.88;;;18.37;66.19
80566;BME280;69915;54.862;10.730;2023-07-20T07:46:30;100892.66;;;18.39;67.04
80566;BME280;69915;54.862;10.730;2023-07-20T07:48:56;100875.09;;;18.35;65.95
80566;BME280;69915;54.862;10.730;2023-07-20T07:51:21;100895.69;;;19.28;63.92
80566;BME280;69915;54.862;10.730;2023-07-20T07:53:47;100910.19;;;18.43;64.98
80566;BME280;69915;54.862;10.730;2023-07-20T07:56:14;100899.09;;;18.64;65.27
80566;BME280;69915;54.862;10.730;2023-07-20T07:58:39;100917.53;;;19.17;63.17
80566;BME280;69915;54.862;10.730;2023-07-20T08:01:06;100887.97;;;20.69;57.84
80566;BME280;69915;54.862;10.730;2023-07-20T08:03:32;100913.75;;;21.28;56.64
80566;BME280;69915;54.862;10.730;2023-07-20T08:05:57;100917.03;;;20.43;58.21
80566;BME280;69915;54.862;10.730;2023-07-20T08:08:25;100916.72;;;19.17;61.07
80566;BME280;69915;54.862;10.730;2023-07-20T08:10:53;100919.66;;;18.87;63.49
80566;BME280;69915;54.862;10.730;2023-07-20T08:13:19;100907.97;;;18.58;64.02
80566;BME280;69915;54.862;10.730;2023-07-20T08:15:48;100921.56;;;19.56;62.32
80566;BME280;69915;54.862;10.730;2023-07-20T08:18:14;100900.28;;;21.14;57.68
80566;BME280;69915;54.862;10.730;2023-07-20T08:20:39;100912.00;;;22.89;53.42
80566;BME280;69915;54.862;10.730;2023-07-20T08:23:33;100908.25;;;20.85;54.18
80566;BME280;69915;54.862;10.730;2023-07-20T08:25:58;100934.19;;;18.72;62.88
80566;BME280;69915;54.862;10.730;2023-07-20T08:28:24;100922.78;;;17.50;67.99
80566;BME280;69915;54.862;10.730;2023-07-20T08:30:51;100903.06;;;19.24;64.34
80566;BME280;69915;54.862;10.730;2023-07-20T08:33:18;100906.75;;;21.34;57.31
80566;BME280;69915;54.862;10.730;2023-07-20T08:35:45;100911.34;;;23.45;53.67
80566;BME280;69915;54.862;10.730;2023-07-20T08:38:12;100903.88;;;24.42;50.24
80566;BME280;69915;54.862;10.730;2023-07-20T08:40:45;100901.63;;;22.48;51.95
80566;BME280;69915;54.862;10.730;2023-07-20T08:43:11;100905.69;;;20.21;57.87
80566;BME280;69915;54.862;10.730;2023-07-20T08:45:41;100917.91;;;18.71;62.96
80566;BME280;69915;54.862;10.730;2023-07-20T08:48:07;100905.19;;;18.25;64.79
80566;BME280;69915;54.862;10.730;2023-07-20T08:50:34;100906.63;;;20.99;58.06
80566;BME280;69915;54.862;10.730;2023-07-20T08:53:01;100897.91;;;21.48;55.00
80566;BME280;69915;54.862;10.730;2023-07-20T08:55:27;100903.53;;;21.67;53.64
80566;BME280;69915;54.862;10.730;2023-07-20T08:57:54;100912.81;;;20.22;55.92
80566;BME280;69915;54.862;10.730;2023-07-20T09:00:21;100912.16;;;21.97;50.62
80566;BME280;69915;54.862;10.730;2023-07-20T09:02:52;100893.97;;;22.83;48.63
80566;BME280;69915;54.862;10.730;2023-07-20T09:05:22;100878.66;;;22.73;48.12
80566;BME280;69915;54.862;10.730;2023-07-20T09:07:53;100898.97;;;23.19;48.57
80566;BME280;69915;54.862;10.730;2023-07-20T09:10:21;100889.38;;;23.99;46.38
80566;BME280;69915;54.862;10.730;2023-07-20T09:12:49;100898.25;;;23.75;46.87
80566;BME280;69915;54.862;10.730;2023-07-20T09:15:15;100879.09;;;23.24;47.19
80566;BME280;69915;54.862;10.730;2023-07-20T09:17:48;100908.03;;;23.92;46.66
80566;BME280;69915;54.862;10.730;2023-07-20T09:20:15;100885.66;;;23.88;45.66
80566;BME280;69915;54.862;10.730;2023-07-20T09:22:41;100921.69;;;23.70;46.54
80566;BME280;69915;54.862;10.730;2023-07-20T09:25:12;100922.97;;;23.01;47.34
80566;BME280;69915;54.862;10.730;2023-07-20T09:27:40;100918.50;;;22.97;47.88
80566;BME280;69915;54.862;10.730;2023-07-20T09:30:07;100911.25;;;22.50;48.97
80566;BME280;69915;54.862;10.730;2023-07-20T09:32:53;100932.13;;;22.60;49.72
80566;BME280;69915;54.862;10.730;2023-07-20T09:35:21;100912.75;;;22.44;51.04
80566;BME280;69915;54.862;10.730;2023-07-20T09:40:21;100918.38;;;20.22;55.20
80566;BME280;69915;54.862;10.730;2023-07-20T09:42:47;100930.41;;;19.86;58.81
80566;BME280;69915;54.862;10.730;2023-07-20T09:45:14;100941.75;;;20.33;62.09
80566;BME280;69915;54.862;10.730;2023-07-20T09:47:39;100940.50;;;20.18;59.91
80566;BME280;69915;54.862;10.730;2023-07-20T09:50:07;100949.31;;;20.08;62.00
80566;BME280;69915;54.862;10.730;2023-07-20T09:52:42;100938.31;;;19.72;60.48
80566;BME280;69915;54.862;10.730;2023-07-20T09:55:10;100949.19;;;19.40;62.86
80566;BME280;69915;54.862;10.730;2023-07-20T09:57:37;100952.97;;;19.36;63.33
80566;BME280;69915;54.862;10.730;2023-07-20T10:00:05;100934.25;;;19.33;62.95
80566;BME280;69915;54.862;10.730;2023-07-20T10:02:43;100936.81;;;19.74;61.67
80566;BME280;69915;54.862;10.730;2023-07-20T10:05:11;100959.19;;;19.33;62.20
80566;BME280;69915;54.862;10.730;2023-07-20T10:07:43;100958.78;;;19.43;61.70
80566;BME280;69915;54.862;10.730;2023-07-20T10:10:11;100949.31;;;19.44;60.76
80566;BME280;69915;54.862;10.730;2023-07-20T10:12:39;100938.72;;;19.86;59.98
80566;BME280;69915;54.862;10.730;2023-07-20T10:15:53;100950.66;;;19.86;58.59
80566;BME280;69915;54.862;10.730;2023-07-20T10:18:17;100941.34;;;20.06;58.00
80566;BME280;69915;54.862;10.730;2023-07-20T10:20:46;100928.53;;;20.42;57.86
80566;BME280;69915;54.862;10.730;2023-07-20T10:23:13;100937.06;;;19.69;59.95
80566;BME280;69915;54.862;10.730;2023-07-20T10:25:39;100930.06;;;19.02;62.30
80566;BME280;69915;54.862;10.730;2023-07-20T10:28:07;100964.78;;;18.76;64.71
80566;BME280;69915;54.862;10.730;2023-07-20T10:30:34;100962.81;;;18.76;65.69
80566;BME280;69915;54.862;10.730;2023-07-20T10:33:04;100949.22;;;18.83;65.80
80566;BME280;69915;54.862;10.730;2023-07-20T10:35:30;100958.38;;;19.08;64.40
80566;BME280;69915;54.862;10.730;2023-07-20T10:38:01;100933.50;;;18.75;63.95
80566;BME280;69915;54.862;10.730;2023-07-20T10:40:32;100944.03;;;18.82;62.90
80566;BME280;69915;54.862;10.730;2023-07-20T10:43:05;100961.88;;;19.17;61.98
80566;BME280;69915;54.862;10.730;2023-07-20T10:50:45;100945.13;;;20.14;59.39
80566;BME280;69915;54.862;10.730;2023-07-20T10:53:18;100940.84;;;20.72;59.67
80566;BME280;69915;54.862;10.730;2023-07-20T10:55:44;100921.56;;;19.68;61.53
80566;BME280;69915;54.862;10.730;2023-07-20T10:58:13;100962.06;;;19.00;66.18
80566;BME280;69915;54.862;10.730;2023-07-20T11:00:56;100970.28;;;18.43;66.91
80566;BME280;69915;54.862;10.730;2023-07-20T11:03:27;100963.03;;;18.18;65.98
80566;BME280;69915;54.862;10.730;2023-07-20T11:05:52;100966.94;;;18.17;66.49
80566;BME280;69915;54.862;10.730;2023-07-20T11:08:38;100972.72;;;18.65;66.97
80566;BME280;69915;54.862;10.730;2023-07-20T11:11:25;100963.06;;;18.51;68.34
80566;BME280;69915;54.862;10.730;2023-07-20T11:16:32;100973.22;;;18.79;67.27
80566;BME280;69915;54.862;10.730;2023-07-20T11:18:58;100947.03;;;18.77;66.49
80566;BME280;69915;54.862;10.730;2023-07-20T11:21:24;100955.09;;;18.82;63.85
80566;BME280;69915;54.862;10.730;2023-07-20T11:23:52;100947.22;;;18.72;64.61
80566;BME280;69915;54.862;10.730;2023-07-20T11:26:17;100961.50;;;19.07;65.94
80566;BME280;69915;54.862;10.730;2023-07-20T11:28:53;100968.38;;;19.45;61.27
80566;BME280;69915;54.862;10.730;2023-07-20T11:31:20;100948.94;;;19.58;62.74
80566;BME280;69915;54.862;10.730;2023-07-20T11:33:47;100951.59;;;19.54;61.78
80566;BME280;69915;54.862;10.730;2023-07-20T11:36:13;100933.44;;;19.81;65.22
80566;BME280;69915;54.862;10.730;2023-07-20T11:38:41;100940.97;;;19.56;60.87
80566;BME280;69915;54.862;10.730;2023-07-20T11:41:08;100943.25;;;19.90;61.29
80566;BME280;69915;54.862;10.730;2023-07-20T11:43:33;100954.59;;;19.61;61.42
80566;BME280;69915;54.862;10.730;2023-07-20T11:45:59;100942.13;;;19.43;61.71
80566;BME280;69915;54.862;10.730;2023-07-20T11:48:25;100948.78;;;19.18;63.00
80566;BME280;69915;54.862;10.730;2023-07-20T11:50:50;100952.03;;;19.08;63.67
80566;BME280;69915;54.862;10.730;2023-07-20T11:53:24;100943.19;;;19.50;63.74
80566;BME280;69915;54.862;10.730;2023-07-20T11:55:53;100940.97;;;19.68;63.69
80566;BME280;69915;54.862;10.730;2023-07-20T11:58:19;100930.28;;;19.94;63.10
80566;BME280;69915;54.862;10.730;2023-07-20T12:00:45;100926.63;;;19.78;61.18
80566;BME280;69915;54.862;10.730;2023-07-20T12:03:12;100933.06;;;19.82;61.34
80566;BME280;69915;54.862;10.730;2023-07-20T12:05:38;100948.97;;;20.09;58.81
80566;BME280;69915;54.862;10.730;2023-07-20T12:08:04;100951.34;;;20.23;59.36
80566;BME280;69915;54.862;10.730;2023-07-20T12:10:29;100953.09;;;20.16;58.67
80566;BME280;69915;54.862;10.730;2023-07-20T12:13:01;100949.91;;;20.01;60.12
80566;BME280;69915;54.862;10.730;2023-07-20T12:15:27;100933.34;;;19.65;61.08
80566;BME280;69915;54.862;10.730;2023-07-20T12:17:56;100949.47;;;19.99;60.80
80566;BME280;69915;54.862;10.730;2023-07-20T12:20:36;100957.09;;;20.42;58.29
80566;BME280;69915;54.862;10.730;2023-07-20T12:23:03;100950.47;;;20.07;54.90
80566;BME280;69915;54.862;10.730;2023-07-20T12:25:44;100954.47;;;20.22;55.64
80566;BME280;69915;54.862;10.730;2023-07-20T12:28:17;100936.03;;;20.01;53.27
80566;BME280;69915;54.862;10.730;2023-07-20T12:30:45;100943.09;;;19.99;54.17
80566;BME280;69915;54.862;10.730;2023-07-20T12:33:12;100947.41;;;20.36;56.14
80566;BME280;69915;54.862;10.730;2023-07-20T12:35:40;100938.88;;;20.29;56.11
80566;BME280;69915;54.862;10.730;2023-07-20T12:38:06;100932.56;;;20.04;53.12
80566;BME280;69915;54.862;10.730;2023-07-20T12:40:31;100945.69;;;20.20;55.78
80566;BME280;69915;54.862;10.730;2023-07-20T12:42:57;100943.50;;;20.13;54.35
80566;BME280;69915;54.862;10.730;2023-07-20T12:45:23;100935.06;;;20.09;55.04
80566;BME280;69915;54.862;10.730;2023-07-20T12:47:48;100940.13;;;20.20;55.53
80566;BME280;69915;54.862;10.730;2023-07-20T12:50:14;100949.31;;;20.08;54.73
80566;BME280;69915;54.862;10.730;2023-07-20T12:52:40;100946.13;;;20.34;55.33
80566;BME280;69915;54.862;10.730;2023-07-20T12:55:07;100946.13;;;20.22;55.28
80566;BME280;69915;54.862;10.730;2023-07-20T12:57:34;100927.06;;;20.20;56.34
80566;BME280;69915;54.862;10.730;2023-07-20T13:00:01;100948.50;;;20.47;57.81
80566;BME280;69915;54.862;10.730;2023-07-20T13:02:28;100950.28;;;20.83;54.58
80566;BME280;69915;54.862;10.730;2023-07-20T13:04:53;100919.88;;;20.31;51.45